San Jose, California
Current Conditions -  °F | °C
As of 3:53 AM on Saturday 20 Dec 2014 (Local Time) from KSJC Reporting Station
Light Rain Light Rain  
Wind Chill: 55°   Ceiling: 2200
Heat Index: 55°   Visibility: 5mi
Dew Point: 54°   Wind: 3mph
Humidity: 96%   Direction: 240°WSW
Pressure: 30.13"   Gusts: NA
Location:  37.35°N, 121.9°W
Report Text: KSJC 201153Z AUTO 24003KT 5SM -RA BR OVC022 13/12 A3013 RMK AO2 RAB23 SLP202 P0000 60002 70020 T01280122 10133 20128 50000
Loading
Personal Weather Stations






























Interactive Weather Map New forecast layout! Learn more

10-Day Weather Forecast

Advertisements
Track Severe Weather on mobile